createdAt,value
2022-08-21T00:00:44.389Z,2.80
2022-08-21T00:01:47.416Z,2.67
2022-08-21T00:02:50.452Z,3.04
2022-08-21T00:03:53.395Z,2.71
2022-08-21T00:04:57.667Z,2.78
2022-08-21T00:06:00.785Z,2.76
2022-08-21T00:07:03.769Z,2.95
2022-08-21T00:08:06.641Z,3.18
2022-08-21T00:09:09.719Z,2.82
2022-08-21T00:10:12.902Z,2.71
2022-08-21T00:11:15.978Z,3.02
2022-08-21T00:12:19.062Z,2.90
2022-08-21T00:13:22.135Z,2.80
2022-08-21T00:14:25.320Z,3.02
2022-08-21T00:15:28.302Z,2.88
2022-08-21T00:16:31.377Z,3.14
2022-08-21T00:17:34.360Z,3.08
2022-08-21T00:18:37.123Z,2.75
2022-08-21T00:19:39.901Z,2.67
2022-08-21T00:20:42.569Z,2.65
2022-08-21T00:21:45.550Z,2.61
2022-08-21T00:22:48.214Z,2.92
2022-08-21T00:23:54.072Z,2.98
2022-08-21T00:24:56.831Z,2.66
2022-08-21T00:25:59.703Z,2.59
2022-08-21T00:27:02.579Z,2.86
2022-08-21T00:28:05.465Z,2.87
2022-08-21T00:29:08.227Z,2.79
2022-08-21T00:30:11.102Z,2.92
2022-08-21T00:31:15.412Z,3.05
2022-08-21T00:32:18.388Z,2.96
2022-08-21T00:33:21.267Z,2.80
2022-08-21T00:34:24.036Z,2.87
2022-08-21T00:35:29.880Z,2.68
2022-08-21T00:36:32.855Z,2.79
2022-08-21T00:37:35.726Z,2.73
2022-08-21T00:38:41.482Z,2.80
2022-08-21T00:39:44.530Z,2.92
2022-08-21T00:40:47.420Z,3.12
2022-08-21T00:41:59.208Z,2.92
2022-08-21T00:43:02.561Z,2.73
2022-08-21T00:44:05.879Z,2.94
2022-08-21T00:45:08.964Z,2.71
2022-08-21T00:46:12.242Z,2.56
2022-08-21T00:47:15.527Z,2.78
2022-08-21T00:48:18.502Z,2.55
2022-08-21T00:49:21.478Z,2.44
2022-08-21T00:50:24.558Z,2.53
2022-08-21T00:51:27.543Z,2.62
2022-08-21T00:52:30.616Z,2.72
2022-08-21T00:53:33.591Z,2.82
2022-08-21T00:54:39.341Z,2.83
2022-08-21T00:55:43.850Z,3.02
2022-08-21T00:56:46.825Z,2.44
2022-08-21T00:57:50.376Z,2.86
2022-08-21T00:58:54.915Z,2.53
2022-08-21T00:59:58.113Z,2.44
2022-08-21T01:01:01.315Z,2.76
2022-08-21T01:02:05.607Z,3.02
2022-08-21T01:03:09.008Z,2.54
2022-08-21T01:04:12.068Z,2.56
2022-08-21T01:05:15.657Z,2.12
2022-08-21T01:06:18.737Z,2.17
2022-08-21T01:07:21.922Z,2.32
2022-08-21T01:08:26.434Z,2.51
2022-08-21T01:09:29.616Z,2.02
2022-08-21T01:10:32.493Z,2.52
2022-08-21T01:11:36.901Z,2.42
2022-08-21T01:12:39.977Z,2.18
2022-08-21T01:13:42.854Z,2.34
2022-08-21T01:14:45.633Z,2.43
2022-08-21T01:15:48.304Z,2.58
2022-08-21T01:16:51.171Z,2.41
2022-08-21T01:17:54.254Z,2.39
2022-08-21T01:18:57.123Z,2.35
2022-08-21T01:20:00.141Z,2.60
2022-08-21T01:21:02.985Z,2.15
2022-08-21T01:22:05.855Z,2.45
2022-08-21T01:23:08.837Z,2.45
2022-08-21T01:24:11.808Z,2.18
2022-08-21T01:25:14.693Z,2.27
2022-08-21T01:26:20.214Z,2.28
2022-08-21T01:27:23.201Z,2.32
2022-08-21T01:28:25.967Z,2.12
2022-08-21T01:29:28.842Z,2.07
2022-08-21T01:30:32.064Z,1.86
2022-08-21T01:31:35.101Z,2.00
2022-08-21T01:32:40.638Z,1.85
2022-08-21T01:33:46.409Z,1.94
2022-08-21T01:34:49.051Z,1.83
2022-08-21T01:35:52.132Z,1.82
2022-08-21T01:36:54.811Z,1.41
2022-08-21T01:37:57.674Z,1.68
2022-08-21T01:39:00.555Z,1.62
2022-08-21T01:40:03.377Z,1.87
2022-08-21T01:41:06.404Z,1.68
2022-08-21T01:42:12.348Z,1.55
2022-08-21T01:43:15.429Z,1.46
2022-08-21T01:44:18.609Z,1.45
2022-08-21T01:45:21.793Z,1.55
2022-08-21T01:46:24.770Z,1.40
2022-08-21T01:47:28.053Z,1.32
2022-08-21T01:48:31.031Z,1.46
2022-08-21T01:49:36.671Z,1.58
2022-08-21T01:50:39.646Z,1.50
2022-08-21T01:51:42.725Z,1.49
2022-08-21T01:52:48.676Z,1.45
2022-08-21T01:53:57.586Z,1.70
2022-08-21T01:55:00.461Z,1.71
2022-08-21T01:56:03.233Z,1.47
2022-08-21T01:57:06.313Z,1.51
2022-08-21T01:58:09.295Z,1.70
2022-08-21T01:59:12.271Z,1.64
2022-08-21T02:00:15.343Z,1.65
2022-08-21T02:01:18.853Z,1.57
2022-08-21T02:02:21.710Z,1.62
2022-08-21T02:03:31.219Z,1.59
2022-08-21T02:04:29.203Z,1.54
2022-08-21T02:05:32.094Z,1.54
2022-08-21T02:06:35.461Z,1.78
2022-08-21T02:07:38.436Z,1.38
2022-08-21T02:08:43.983Z,1.59
2022-08-21T02:09:50.056Z,1.58
2022-08-21T02:10:53.892Z,1.57
2022-08-21T02:11:59.559Z,1.67
2022-08-21T02:13:02.340Z,1.66
2022-08-21T02:14:05.007Z,1.65
2022-08-21T02:15:07.989Z,1.59
2022-08-21T02:16:11.064Z,1.55
2022-08-21T02:18:33.093Z,1.67
2022-08-21T02:19:40.266Z,1.42
2022-08-21T02:20:40.684Z,1.36
2022-08-21T02:21:43.664Z,1.45
2022-08-21T02:22:46.544Z,1.46
2022-08-21T02:23:49.413Z,1.60
2022-08-21T02:24:55.123Z,1.48
2022-08-21T02:25:56.491Z,1.31
2022-08-21T02:26:59.364Z,1.46
2022-08-21T02:28:02.156Z,1.50
2022-08-21T02:29:05.115Z,1.34
2022-08-21T02:30:08.195Z,1.36
2022-08-21T02:31:11.274Z,1.38
2022-08-21T02:32:15.798Z,1.18
2022-08-21T02:33:19.070Z,1.39
2022-08-21T02:34:21.947Z,1.43
2022-08-21T02:35:26.455Z,1.49
2022-08-21T02:36:29.535Z,1.30
2022-08-21T02:37:32.512Z,1.28
2022-08-21T02:38:35.704Z,1.24
2022-08-21T02:39:39.052Z,1.25
2022-08-21T02:40:43.768Z,1.06
2022-08-21T02:41:46.682Z,1.25
2022-08-21T02:42:49.344Z,1.45
2022-08-21T02:43:52.631Z,1.52
2022-08-21T02:44:58.472Z,1.35
2022-08-21T02:46:01.450Z,1.42
2022-08-21T02:47:04.223Z,1.54
2022-08-21T02:48:06.903Z,1.47
2022-08-21T02:49:10.077Z,1.38
2022-08-21T02:50:13.054Z,1.45
2022-08-21T02:51:16.026Z,1.51
2022-08-21T02:52:19.106Z,1.40
2022-08-21T02:53:22.087Z,1.43
2022-08-21T02:54:25.188Z,1.09
2022-08-21T02:55:28.142Z,1.30
2022-08-21T02:56:31.734Z,1.35
2022-08-21T02:57:34.737Z,1.42
2022-08-21T02:58:37.694Z,1.45
2022-08-21T02:59:40.776Z,1.22
2022-08-21T03:00:43.639Z,1.28
2022-08-21T03:01:46.864Z,1.15
2022-08-21T03:02:49.599Z,1.36
2022-08-21T03:03:52.675Z,1.38
2022-08-21T03:04:55.651Z,1.38
2022-08-21T03:05:58.425Z,1.45
2022-08-21T03:07:01.306Z,1.48
2022-08-21T03:08:03.967Z,1.35
2022-08-21T03:09:06.639Z,1.39
2022-08-21T03:10:22.006Z,1.30
2022-08-21T03:11:25.087Z,1.30
2022-08-21T03:12:29.949Z,1.08
2022-08-21T03:13:32.779Z,1.09
2022-08-21T03:14:35.753Z,1.37
2022-08-21T03:15:38.732Z,1.22
2022-08-21T03:16:41.607Z,1.38
2022-08-21T03:17:44.483Z,1.46
2022-08-21T03:18:47.156Z,1.32
2022-08-21T03:19:49.924Z,1.34
2022-08-21T03:20:54.236Z,1.35
2022-08-21T03:21:57.006Z,1.40
2022-08-21T03:22:59.995Z,1.33
2022-08-21T03:24:04.246Z,1.38
2022-08-21T03:25:07.369Z,1.29
2022-08-21T03:26:11.679Z,1.40
2022-08-21T03:27:14.656Z,1.31
2022-08-21T03:28:17.629Z,1.22
2022-08-21T03:29:20.722Z,1.37
2022-08-21T03:30:23.802Z,1.41
2022-08-21T03:31:27.073Z,1.23
2022-08-21T03:32:30.155Z,1.17
2022-08-21T03:33:33.231Z,1.15
2022-08-21T03:34:36.831Z,1.34
2022-08-21T03:35:39.698Z,1.10
2022-08-21T03:36:43.084Z,1.06
2022-08-21T03:37:45.963Z,1.25
2022-08-21T03:38:48.730Z,1.15
2022-08-21T03:39:51.680Z,1.12
2022-08-21T03:40:54.381Z,1.00
2022-08-21T03:41:57.255Z,0.89
2022-08-21T03:43:00.037Z,1.27
2022-08-21T03:44:02.899Z,1.09
2022-08-21T03:45:05.679Z,0.97
2022-08-21T03:46:08.858Z,1.02
2022-08-21T03:47:12.141Z,1.25
2022-08-21T03:48:15.114Z,1.18
2022-08-21T03:49:17.994Z,1.08
2022-08-21T03:50:21.076Z,1.00
2022-08-21T03:51:24.258Z,1.05
2022-08-21T03:52:27.536Z,0.93
2022-08-21T03:53:30.513Z,0.78
2022-08-21T03:54:33.385Z,0.93
2022-08-21T03:55:36.368Z,0.98
2022-08-21T03:56:39.343Z,1.08
2022-08-21T03:57:42.427Z,0.96
2022-08-21T03:58:45.298Z,1.15
2022-08-21T03:59:48.170Z,1.15
2022-08-21T04:00:50.844Z,0.98
2022-08-21T04:01:53.794Z,1.48
2022-08-21T04:02:59.829Z,1.84
2022-08-21T04:04:02.945Z,1.99
2022-08-21T04:05:05.819Z,2.01
2022-08-21T04:06:08.693Z,2.00
2022-08-21T04:07:12.489Z,2.03
2022-08-21T04:08:15.875Z,2.18
2022-08-21T04:09:18.957Z,2.37
2022-08-21T04:10:21.939Z,2.07
2022-08-21T04:11:25.321Z,2.05
2022-08-21T04:12:28.302Z,2.20
2022-08-21T04:13:31.481Z,2.29
2022-08-21T04:14:34.457Z,2.42
2022-08-21T04:15:37.442Z,2.34
2022-08-21T04:16:40.411Z,2.25
2022-08-21T04:17:46.258Z,2.27
2022-08-21T04:18:49.031Z,2.11
2022-08-21T04:19:54.017Z,2.03
2022-08-21T04:20:56.312Z,2.16
2022-08-21T04:21:59.085Z,2.36
2022-08-21T04:23:01.755Z,2.25
2022-08-21T04:24:07.596Z,1.98
2022-08-21T04:25:10.473Z,1.63
2022-08-21T04:26:13.243Z,1.86
2022-08-21T04:27:19.085Z,1.85
2022-08-21T04:28:23.189Z,2.13
2022-08-21T04:29:26.582Z,1.99
2022-08-21T04:30:29.369Z,2.11
2022-08-21T04:31:32.124Z,1.74
2022-08-21T04:32:34.793Z,1.97
2022-08-21T04:33:37.667Z,2.07
2022-08-21T04:34:40.852Z,2.09
2022-08-21T04:35:43.930Z,2.02
2022-08-21T04:36:46.803Z,2.14
2022-08-21T04:37:49.684Z,1.93
2022-08-21T04:38:58.083Z,2.22
2022-08-21T04:40:01.240Z,2.01
2022-08-21T04:41:04.136Z,1.87
2022-08-21T04:42:06.806Z,1.86
2022-08-21T04:43:09.887Z,2.03
2022-08-21T04:44:15.529Z,1.97
2022-08-21T04:45:18.814Z,1.99
2022-08-21T04:46:21.785Z,1.99
2022-08-21T04:47:24.660Z,1.92
2022-08-21T04:48:29.182Z,2.21
2022-08-21T04:49:32.369Z,1.91
2022-08-21T04:50:35.649Z,1.99
2022-08-21T04:51:38.513Z,2.21
2022-08-21T04:52:41.497Z,2.03
2022-08-21T04:53:44.367Z,2.02
2022-08-21T04:54:47.039Z,2.18
2022-08-21T04:55:50.421Z,2.09
2022-08-21T04:56:53.196Z,1.98
2022-08-21T04:59:14.927Z,2.21
2022-08-21T05:00:18.309Z,2.08
2022-08-21T05:01:21.449Z,1.89
2022-08-21T05:02:24.366Z,2.09
2022-08-21T05:03:27.349Z,1.78
2022-08-21T05:04:30.229Z,1.78
2022-08-21T05:05:33.087Z,2.05
2022-08-21T05:06:36.383Z,2.10
2022-08-21T05:07:42.052Z,2.11
2022-08-21T05:08:43.973Z,2.29
2022-08-21T05:09:46.846Z,2.33
2022-08-21T05:10:49.721Z,2.23
2022-08-21T05:11:53.003Z,2.22
2022-08-21T05:12:55.775Z,2.42
2022-08-21T05:13:58.647Z,2.25
2022-08-21T05:15:01.526Z,2.25
2022-08-21T05:16:04.301Z,2.20
2022-08-21T05:17:08.814Z,2.23
2022-08-21T05:18:11.581Z,1.98
2022-08-21T05:19:14.664Z,2.12
2022-08-21T05:20:17.634Z,2.31
2022-08-21T05:21:20.513Z,2.21
2022-08-21T05:22:23.489Z,2.23
2022-08-21T05:23:26.366Z,2.25
2022-08-21T05:24:29.135Z,1.75
2022-08-21T05:25:32.316Z,2.53
2022-08-21T05:26:46.237Z,1.85
2022-08-21T05:27:44.517Z,1.86
2022-08-21T05:28:47.184Z,1.82
2022-08-21T05:29:50.169Z,2.04
2022-08-21T05:30:53.242Z,1.87
2022-08-21T05:31:56.322Z,2.00
2022-08-21T05:32:59.413Z,1.96
2022-08-21T05:34:02.382Z,1.78
2022-08-21T05:35:05.978Z,1.90
2022-08-21T05:36:09.055Z,2.07
2022-08-21T05:37:11.924Z,2.08
2022-08-21T05:38:18.195Z,2.22
2022-08-21T05:39:19.722Z,1.95
2022-08-21T05:40:23.460Z,1.78
2022-08-21T05:41:26.597Z,1.86
2022-08-21T05:42:29.679Z,2.03
2022-08-21T05:43:32.772Z,2.38
2022-08-21T05:44:35.470Z,2.02
2022-08-21T05:45:42.707Z,2.19
2022-08-21T05:46:43.631Z,2.11
2022-08-21T05:47:46.509Z,2.14
2022-08-21T05:48:49.597Z,2.12
2022-08-21T05:49:52.461Z,1.91
2022-08-21T05:50:55.132Z,2.09
2022-08-21T05:51:57.813Z,1.94
2022-08-21T05:53:00.680Z,2.15
2022-08-21T05:54:04.984Z,1.99
2022-08-21T05:55:07.655Z,1.89
2022-08-21T05:56:13.399Z,2.12
2022-08-21T05:57:16.069Z,1.77
2022-08-21T05:58:18.836Z,2.16
2022-08-21T05:59:21.917Z,2.40
2022-08-21T06:00:24.792Z,2.15
2022-08-21T06:01:27.569Z,1.85
2022-08-21T06:02:33.311Z,2.25
2022-08-21T06:03:35.971Z,2.25
2022-08-21T06:04:38.949Z,1.82
2022-08-21T06:06:00.076Z,1.92
2022-08-21T06:07:02.728Z,1.81
2022-08-21T06:08:05.399Z,1.85
2022-08-21T06:09:08.063Z,2.15
2022-08-21T06:10:10.944Z,1.95
2022-08-21T06:11:13.609Z,1.65
2022-08-21T06:12:16.279Z,1.89
2022-08-21T06:13:18.946Z,1.93
2022-08-21T06:14:21.819Z,1.95
2022-08-21T06:15:24.700Z,1.97
2022-08-21T06:16:27.377Z,1.95
2022-08-21T06:17:30.041Z,1.80
2022-08-21T06:18:32.812Z,2.12
2022-08-21T06:19:35.584Z,2.10
2022-08-21T06:20:38.459Z,2.02
2022-08-21T06:21:41.124Z,2.33
2022-08-21T06:22:43.796Z,2.41
2022-08-21T06:23:46.465Z,2.30
2022-08-21T06:24:49.249Z,2.09
2022-08-21T06:25:52.110Z,2.03
2022-08-21T06:26:56.418Z,2.16
2022-08-21T06:27:59.400Z,1.89
2022-08-21T06:29:02.167Z,1.71
2022-08-21T06:30:04.946Z,2.10
2022-08-21T06:31:07.816Z,1.75
2022-08-21T06:32:10.383Z,1.90
2022-08-21T06:33:13.358Z,2.11
2022-08-21T06:34:17.675Z,2.06
2022-08-21T06:35:20.549Z,2.05
2022-08-21T06:36:23.628Z,2.20
2022-08-21T06:37:27.419Z,1.92
2022-08-21T06:38:32.461Z,1.96
2022-08-21T06:39:35.554Z,2.09
2022-08-21T06:40:43.739Z,2.08
2022-08-21T06:41:44.461Z,2.16
2022-08-21T06:42:47.930Z,1.97
2022-08-21T06:43:50.706Z,2.42
2022-08-21T06:44:53.488Z,2.15
2022-08-21T06:45:56.148Z,2.06
2022-08-21T06:46:58.925Z,2.18
2022-08-21T06:48:01.799Z,2.05
2022-08-21T06:49:04.575Z,2.18
2022-08-21T06:50:08.981Z,2.16
2022-08-21T06:51:11.650Z,2.51
2022-08-21T06:52:14.532Z,2.12
2022-08-21T06:53:17.304Z,1.99
2022-08-21T06:54:20.068Z,2.42
2022-08-21T06:55:25.359Z,2.18
2022-08-21T06:56:27.146Z,2.24
2022-08-21T06:57:30.032Z,2.04
2022-08-21T06:58:32.694Z,1.98
2022-08-21T06:59:35.369Z,1.89
2022-08-21T07:00:38.068Z,1.98
2022-08-21T07:01:40.877Z,2.05
2022-08-21T07:02:43.889Z,2.05
2022-08-21T07:03:46.661Z,2.19
2022-08-21T07:04:49.458Z,2.21
2022-08-21T07:05:52.301Z,2.22
2022-08-21T07:06:55.084Z,2.21
2022-08-21T07:07:58.053Z,1.92
2022-08-21T07:09:00.829Z,2.00
2022-08-21T07:10:03.496Z,2.04
2022-08-21T07:11:06.168Z,1.98
2022-08-21T07:12:08.943Z,2.03
2022-08-21T07:13:11.915Z,1.95
2022-08-21T07:14:20.411Z,1.95
2022-08-21T07:15:19.301Z,1.71
2022-08-21T07:16:22.280Z,1.64
2022-08-21T07:17:25.252Z,1.82
2022-08-21T07:18:28.541Z,1.92
2022-08-21T07:19:31.525Z,2.16
2022-08-21T07:20:34.393Z,1.86
2022-08-21T07:21:37.471Z,2.07
2022-08-21T07:22:40.346Z,2.01
2022-08-21T07:23:43.528Z,1.97
2022-08-21T07:24:46.505Z,1.95
2022-08-21T07:25:49.378Z,2.09
2022-08-21T07:26:52.151Z,2.32
2022-08-21T07:27:55.026Z,1.69
2022-08-21T07:28:58.108Z,2.22
2022-08-21T07:30:00.774Z,1.67
2022-08-21T07:31:03.654Z,1.78
2022-08-21T07:32:06.425Z,1.92
2022-08-21T07:33:09.093Z,1.87
2022-08-21T07:34:12.281Z,2.05
2022-08-21T07:35:15.250Z,1.88
2022-08-21T07:36:18.432Z,1.63
2022-08-21T07:37:21.518Z,1.84
2022-08-21T07:38:24.385Z,1.72
2022-08-21T07:39:27.584Z,2.02
2022-08-21T07:40:30.665Z,1.95
2022-08-21T07:41:33.737Z,1.92
2022-08-21T07:42:36.809Z,2.11
2022-08-21T07:43:46.022Z,2.33
2022-08-21T07:44:44.507Z,2.13
2022-08-21T07:45:47.584Z,2.24
2022-08-21T07:46:50.254Z,2.07
2022-08-21T07:47:57.151Z,2.25
2022-08-21T07:48:57.331Z,2.01
2022-08-21T07:50:00.209Z,1.98
2022-08-21T07:51:02.977Z,2.15
2022-08-21T07:52:05.849Z,2.09
2022-08-21T07:53:08.625Z,2.22
2022-08-21T07:54:11.494Z,2.45
2022-08-21T07:55:16.117Z,2.59
2022-08-21T07:56:18.887Z,2.18
2022-08-21T07:57:21.873Z,2.52
2022-08-21T07:58:25.048Z,2.83
2022-08-21T07:59:28.227Z,2.41
2022-08-21T08:00:31.210Z,2.40
2022-08-21T08:01:34.205Z,2.10
2022-08-21T08:02:37.156Z,2.52
2022-08-21T08:03:39.928Z,2.43
2022-08-21T08:04:50.647Z,2.46
2022-08-21T08:05:47.111Z,2.44
2022-08-21T08:06:50.291Z,2.46
2022-08-21T08:07:53.165Z,2.50
2022-08-21T08:08:56.148Z,2.57
2022-08-21T08:09:58.923Z,2.40
2022-08-21T08:11:01.796Z,2.76
2022-08-21T08:12:04.567Z,2.75
2022-08-21T08:13:10.564Z,2.42
2022-08-21T08:14:11.953Z,2.51
2022-08-21T08:15:14.933Z,2.70
2022-08-21T08:16:17.911Z,2.72
2022-08-21T08:17:20.989Z,2.95
2022-08-21T08:18:23.657Z,3.17
2022-08-21T08:19:26.528Z,2.66
2022-08-21T08:20:29.711Z,2.69
2022-08-21T08:21:32.816Z,2.88
2022-08-21T08:22:37.197Z,2.93
2022-08-21T08:23:40.176Z,3.02
2022-08-21T08:24:43.566Z,3.14
2022-08-21T08:25:46.434Z,2.97
2022-08-21T08:26:53.993Z,3.46
2022-08-21T08:27:54.034Z,3.17
2022-08-21T08:28:56.911Z,3.15
2022-08-21T08:29:59.985Z,3.42
2022-08-21T08:31:02.871Z,3.54
2022-08-21T08:32:06.044Z,3.63
2022-08-21T08:33:08.815Z,3.32
2022-08-21T08:34:11.792Z,3.66
2022-08-21T08:35:16.098Z,3.68
2022-08-21T08:36:19.767Z,3.47
2022-08-21T08:37:23.556Z,3.63
2022-08-21T08:38:27.689Z,3.55
2022-08-21T08:39:30.769Z,3.47
2022-08-21T08:40:34.162Z,3.45
2022-08-21T08:41:37.238Z,3.25
2022-08-21T08:42:41.656Z,3.52
2022-08-21T08:43:44.951Z,3.77
2022-08-21T08:44:48.011Z,3.68
2022-08-21T08:45:51.002Z,3.44
2022-08-21T08:46:53.763Z,3.22
2022-08-21T08:47:58.582Z,3.86
2022-08-21T08:49:01.569Z,3.51
2022-08-21T08:50:05.864Z,3.53
2022-08-21T08:51:08.871Z,3.76
2022-08-21T08:52:11.715Z,3.32
2022-08-21T08:53:14.591Z,3.42
2022-08-21T08:54:17.668Z,3.47
2022-08-21T08:55:23.219Z,3.54
2022-08-21T08:56:25.362Z,3.36
2022-08-21T08:57:28.652Z,3.55
2022-08-21T08:58:31.726Z,3.27
2022-08-21T08:59:34.912Z,3.19
2022-08-21T09:00:37.791Z,3.63
2022-08-21T09:01:41.142Z,3.88
2022-08-21T09:02:44.152Z,2.86
2022-08-21T09:03:47.123Z,3.11
2022-08-21T09:04:50.316Z,3.05
2022-08-21T09:05:53.388Z,3.36
2022-08-21T09:06:56.159Z,3.30
2022-08-21T09:07:59.558Z,2.92
2022-08-21T09:09:02.729Z,2.67
2022-08-21T09:10:05.396Z,2.84
2022-08-21T09:11:08.583Z,2.68
2022-08-21T09:12:11.351Z,2.87
2022-08-21T09:13:14.433Z,3.09
2022-08-21T09:14:17.818Z,2.96
2022-08-21T09:15:20.799Z,3.42
2022-08-21T09:16:23.575Z,3.72
2022-08-21T09:17:26.441Z,3.86
2022-08-21T09:18:29.519Z,3.23
2022-08-21T09:19:32.508Z,3.22
2022-08-21T09:20:35.369Z,2.95
2022-08-21T09:21:38.454Z,3.26
2022-08-21T09:22:41.632Z,3.10
2022-08-21T09:23:44.509Z,3.09
2022-08-21T09:24:51.404Z,3.54
2022-08-21T09:25:52.406Z,3.56
2022-08-21T09:26:55.486Z,3.28
2022-08-21T09:27:58.358Z,3.25
2022-08-21T09:29:01.237Z,3.24
2022-08-21T09:30:04.551Z,2.98
2022-08-21T09:31:07.294Z,3.01
2022-08-21T09:32:10.173Z,3.28
2022-08-21T09:33:13.140Z,3.22
2022-08-21T09:34:16.427Z,3.12
2022-08-21T09:35:19.715Z,3.36
2022-08-21T09:36:22.587Z,3.18
2022-08-21T09:37:25.458Z,2.98
2022-08-21T09:38:28.339Z,2.91
2022-08-21T09:39:31.323Z,2.45
2022-08-21T09:40:34.717Z,2.72
2022-08-21T09:41:37.780Z,2.65
2022-08-21T09:42:40.758Z,2.83
2022-08-21T09:43:43.734Z,2.58
2022-08-21T09:44:46.710Z,2.75
2022-08-21T09:45:49.893Z,2.76
2022-08-21T09:46:52.455Z,2.68
2022-08-21T09:47:55.129Z,2.67
2022-08-21T09:48:57.802Z,2.57
2022-08-21T09:50:01.287Z,2.75
2022-08-21T09:51:04.265Z,2.82
2022-08-21T09:52:07.038Z,2.72
2022-08-21T09:53:09.703Z,2.54
2022-08-21T09:54:12.581Z,2.67
2022-08-21T09:55:15.358Z,2.52
2022-08-21T09:56:23.332Z,2.81
2022-08-21T09:57:27.248Z,2.77
2022-08-21T09:58:30.221Z,2.63
2022-08-21T09:59:36.856Z,2.74
2022-08-21T10:00:37.690Z,2.52
2022-08-21T10:01:40.792Z,2.65
2022-08-21T10:02:43.562Z,2.52
2022-08-21T10:03:46.440Z,2.55
2022-08-21T10:04:49.415Z,2.50
2022-08-21T10:05:52.287Z,2.74
2022-08-21T10:06:58.222Z,2.68
2022-08-21T10:07:59.577Z,2.56
2022-08-21T10:09:02.454Z,2.93
2022-08-21T10:10:05.331Z,2.55
2022-08-21T10:11:07.998Z,2.65
2022-08-21T10:12:11.451Z,2.73
2022-08-21T10:13:14.361Z,2.56
2022-08-21T10:14:17.028Z,2.73
2022-08-21T10:15:19.913Z,2.70
2022-08-21T10:16:22.576Z,2.49
2022-08-21T10:17:25.447Z,2.75
2022-08-21T10:18:28.114Z,2.63
2022-08-21T10:19:30.899Z,2.73
2022-08-21T10:20:33.559Z,2.74
2022-08-21T10:21:36.329Z,2.77
2022-08-21T10:22:39.210Z,2.54
2022-08-21T10:23:41.982Z,2.68
2022-08-21T10:24:44.750Z,2.77
2022-08-21T10:25:50.514Z,2.67
2022-08-21T10:26:51.726Z,2.90
2022-08-21T10:27:54.498Z,2.68
2022-08-21T10:28:57.376Z,2.52
2022-08-21T10:30:00.054Z,2.87
2022-08-21T10:31:02.714Z,2.92
2022-08-21T10:32:05.482Z,3.17
2022-08-21T10:33:09.796Z,2.60
2022-08-21T10:34:12.674Z,3.05
2022-08-21T10:35:15.340Z,2.95
2022-08-21T10:36:18.006Z,3.25
2022-08-21T10:37:20.903Z,3.35
2022-08-21T10:38:48.866Z,3.22
2022-08-21T10:39:35.257Z,3.57
2022-08-21T10:40:38.825Z,3.44
2022-08-21T10:41:41.700Z,3.17
2022-08-21T10:42:44.471Z,2.40
2022-08-21T10:43:47.247Z,2.55
2022-08-21T10:44:49.914Z,2.66
2022-08-21T10:45:52.583Z,2.45
2022-08-21T10:46:55.354Z,2.44
2022-08-21T10:47:58.432Z,2.55
2022-08-21T10:49:01.211Z,2.48
2022-08-21T10:50:03.883Z,2.67
2022-08-21T10:51:06.545Z,2.88
2022-08-21T10:52:09.224Z,2.72
2022-08-21T10:53:12.914Z,2.48
2022-08-21T10:54:19.150Z,2.73
2022-08-21T10:55:20.606Z,2.79
2022-08-21T10:56:23.584Z,2.62
2022-08-21T10:57:32.087Z,2.55
2022-08-21T10:58:31.075Z,2.54
2022-08-21T10:59:38.445Z,2.65
2022-08-21T11:00:38.911Z,2.49
2022-08-21T11:01:42.057Z,3.23
2022-08-21T11:02:46.171Z,2.54
2022-08-21T11:03:49.165Z,2.85
2022-08-21T11:04:51.956Z,2.82
2022-08-21T11:05:55.098Z,2.87
2022-08-21T11:07:00.826Z,2.69
2022-08-21T11:08:05.139Z,2.61
2022-08-21T11:09:10.978Z,2.68
2022-08-21T11:10:15.287Z,2.67
2022-08-21T11:11:22.140Z,2.51
2022-08-21T11:12:37.221Z,2.41
2022-08-21T11:13:40.097Z,2.61
2022-08-21T11:14:43.241Z,2.68
2022-08-21T11:15:53.627Z,2.11
2022-08-21T11:16:56.295Z,2.53
2022-08-21T11:17:59.273Z,2.22
2022-08-21T11:19:02.048Z,2.55
2022-08-21T11:20:04.717Z,2.15
2022-08-21T11:21:07.383Z,2.36
2022-08-21T11:22:10.055Z,2.19
2022-08-21T11:23:15.909Z,2.29
2022-08-21T11:24:18.672Z,1.92
2022-08-21T11:25:21.340Z,2.09
2022-08-21T11:26:24.110Z,2.40
2022-08-21T11:27:26.779Z,1.99
2022-08-21T11:28:35.489Z,2.10
2022-08-21T11:29:38.484Z,2.42
2022-08-21T11:30:41.346Z,2.40
2022-08-21T11:31:44.220Z,2.93
2022-08-21T11:32:47.093Z,2.06
2022-08-21T11:33:52.737Z,2.32
2022-08-21T11:34:58.684Z,2.19
2022-08-21T11:36:01.654Z,2.12
2022-08-21T11:37:07.295Z,2.29
2022-08-21T11:38:09.997Z,2.11
2022-08-21T11:39:12.738Z,1.98
2022-08-21T11:40:18.227Z,1.91
2022-08-21T11:41:23.615Z,1.98
2022-08-21T11:42:29.449Z,1.99
2022-08-21T11:43:32.321Z,1.88
2022-08-21T11:44:35.402Z,2.03
2022-08-21T11:45:38.380Z,2.13
2022-08-21T11:46:44.223Z,2.09
2022-08-21T11:47:50.890Z,1.84
2022-08-21T11:48:51.816Z,1.86
2022-08-21T11:49:56.333Z,2.32
2022-08-21T11:50:59.210Z,2.24
2022-08-21T11:52:04.946Z,2.32
2022-08-21T11:53:10.585Z,2.42
2022-08-21T11:54:13.591Z,2.28
2022-08-21T11:55:16.434Z,2.66
2022-08-21T11:56:20.947Z,2.16
2022-08-21T11:57:26.690Z,2.19
2022-08-21T11:58:29.773Z,2.20
2022-08-21T11:59:34.774Z,2.20
2022-08-21T12:00:37.266Z,2.19
2022-08-21T12:01:40.185Z,2.22
2022-08-21T12:02:45.878Z,2.32
2022-08-21T12:03:51.828Z,1.98
2022-08-21T12:04:54.603Z,2.41
2022-08-21T12:06:01.778Z,2.46
2022-08-21T12:07:07.310Z,2.40
2022-08-21T12:08:09.982Z,2.24
2022-08-21T12:09:14.083Z,2.38
2022-08-21T12:10:16.963Z,2.36
2022-08-21T12:11:22.904Z,2.46
2022-08-21T12:12:27.428Z,2.13
2022-08-21T12:13:40.095Z,2.24
2022-08-21T12:14:34.918Z,2.01
2022-08-21T12:15:37.783Z,1.96
2022-08-21T12:16:43.316Z,2.29
2022-08-21T12:17:46.193Z,2.39
2022-08-21T12:18:51.631Z,2.19
2022-08-21T12:19:57.169Z,2.19
2022-08-21T12:20:59.844Z,2.30
2022-08-21T12:22:02.709Z,1.96
2022-08-21T12:23:13.115Z,2.42
2022-08-21T12:24:16.060Z,2.34
2022-08-21T12:25:21.762Z,2.20
2022-08-21T12:26:23.527Z,2.17
2022-08-21T12:27:26.194Z,2.30
2022-08-21T12:28:29.072Z,2.13
2022-08-21T12:29:34.709Z,2.32
2022-08-21T12:30:37.591Z,2.21
2022-08-21T12:31:40.578Z,2.00
2022-08-21T12:32:43.435Z,1.82
2022-08-21T12:33:49.085Z,2.35
2022-08-21T12:34:51.949Z,2.54
2022-08-21T12:36:00.558Z,2.01
2022-08-21T12:37:03.230Z,1.97
2022-08-21T12:38:06.005Z,2.07
2022-08-21T12:39:08.774Z,1.81
2022-08-21T12:40:14.652Z,2.19
2022-08-21T12:41:20.461Z,2.17
2022-08-21T12:42:26.303Z,2.21
2022-08-21T12:43:29.079Z,2.31
2022-08-21T12:44:32.060Z,1.98
2022-08-21T12:45:40.766Z,2.10
2022-08-21T12:46:46.200Z,2.41
2022-08-21T12:47:48.971Z,2.19
2022-08-21T12:48:51.639Z,1.96
2022-08-21T12:49:54.417Z,2.02
2022-08-21T12:50:57.086Z,2.33
2022-08-21T12:52:03.132Z,2.15
2022-08-21T12:53:20.311Z,2.06
2022-08-21T12:54:12.876Z,2.21
2022-08-21T12:55:16.878Z,1.97
2022-08-21T12:56:19.851Z,2.15
2022-08-21T12:57:25.397Z,2.30
2022-08-21T12:58:31.237Z,2.18
2022-08-21T12:59:34.107Z,2.17
2022-08-21T13:00:36.992Z,2.70
2022-08-21T13:01:42.683Z,2.02
2022-08-21T13:02:45.397Z,2.28
2022-08-21T13:03:57.108Z,2.18
2022-08-21T13:04:55.550Z,2.48
2022-08-21T13:05:58.434Z,2.32
2022-08-21T13:07:01.092Z,2.35
2022-08-21T13:08:06.631Z,2.59
2022-08-21T13:09:12.375Z,2.18
2022-08-21T13:10:15.055Z,2.34
2022-08-21T13:11:18.016Z,2.26
2022-08-21T13:12:22.527Z,2.50
2022-08-21T13:13:37.592Z,2.36
2022-08-21T13:14:45.935Z,2.65
2022-08-21T13:15:47.889Z,2.61
2022-08-21T13:16:51.039Z,2.57
2022-08-21T13:17:55.237Z,2.68
2022-08-21T13:18:58.009Z,2.85
2022-08-21T13:20:00.789Z,2.56
2022-08-21T13:21:03.470Z,2.66
2022-08-21T13:22:33.586Z,2.65
2022-08-21T13:23:10.436Z,2.80
2022-08-21T13:24:38.638Z,3.14
2022-08-21T13:25:17.407Z,2.66
2022-08-21T13:26:20.279Z,2.82
2022-08-21T13:27:23.153Z,3.02
2022-08-21T13:28:26.133Z,2.94
2022-08-21T13:29:28.906Z,2.47
2022-08-21T13:30:34.647Z,2.79
2022-08-21T13:31:40.182Z,2.87
2022-08-21T13:32:43.063Z,2.87
2022-08-21T13:35:04.476Z,2.72
2022-08-21T13:36:07.248Z,2.75
2022-08-21T13:37:09.912Z,2.98
2022-08-21T13:38:12.582Z,2.70
2022-08-21T13:39:15.464Z,2.62
2022-08-21T13:40:18.424Z,2.65
2022-08-21T13:41:21.313Z,2.88
2022-08-21T13:42:24.187Z,2.57
2022-08-21T13:43:27.164Z,2.65
2022-08-21T13:44:30.037Z,2.86
2022-08-21T13:45:36.087Z,2.65
2022-08-21T13:46:41.727Z,2.83
2022-08-21T13:47:44.602Z,2.92
2022-08-21T13:48:47.477Z,2.93
2022-08-21T13:49:50.142Z,2.76
2022-08-21T13:50:55.682Z,2.65
2022-08-21T13:52:01.322Z,2.64
2022-08-21T13:53:07.272Z,2.64
2022-08-21T13:54:10.039Z,2.49
2022-08-21T13:55:12.814Z,2.63
2022-08-21T13:56:21.738Z,2.44
2022-08-21T13:57:25.013Z,2.50
2022-08-21T13:58:28.195Z,2.52
2022-08-21T13:59:31.068Z,2.55
2022-08-21T14:00:36.611Z,2.60
2022-08-21T14:01:39.307Z,2.39
2022-08-21T14:02:42.415Z,2.58
2022-08-21T14:03:48.202Z,2.42
2022-08-21T14:04:53.634Z,2.59
2022-08-21T14:06:00.586Z,2.51
2022-08-21T14:07:03.478Z,2.50
2022-08-21T14:08:06.149Z,2.33
2022-08-21T14:09:08.820Z,2.33